sensor_id;sensor_type;location;lat;lon;timestamp;pressure;altitude;pressure_sealevel;temperature;humidity
64687;BME280;51113;53.646;-113.674;2024-03-23T00:55:52;94442.16;;;-5.71;87.69
64687;BME280;51113;53.646;-113.674;2024-03-23T00:58:19;94432.16;;;-5.91;87.04
64687;BME280;51113;53.646;-113.674;2024-03-23T01:00:45;94434.59;;;-5.99;86.11
64687;BME280;51113;53.646;-113.674;2024-03-23T01:03:12;94432.53;;;-6.13;86.79
64687;BME280;51113;53.646;-113.674;2024-03-23T01:05:38;94428.31;;;-6.22;87.39
64687;BME280;51113;53.646;-113.674;2024-03-23T01:08:05;94427.00;;;-6.26;88.26
64687;BME280;51113;53.646;-113.674;2024-03-23T01:10:32;94424.00;;;-6.12;88.07
64687;BME280;51113;53.646;-113.674;2024-03-23T01:12:58;94425.22;;;-6.16;88.76
64687;BME280;51113;53.646;-113.674;2024-03-23T01:15:25;94425.88;;;-6.14;88.36
64687;BME280;51113;53.646;-113.674;2024-03-23T01:17:51;94425.75;;;-6.12;90.04
64687;BME280;51113;53.646;-113.674;2024-03-23T01:20:18;94420.34;;;-6.27;90.50
64687;BME280;51113;53.646;-113.674;2024-03-23T01:22:44;94423.63;;;-6.17;92.23
64687;BME280;51113;53.646;-113.674;2024-03-23T01:25:11;94419.81;;;-6.21;91.43
64687;BME280;51113;53.646;-113.674;2024-03-23T01:27:38;94418.22;;;-6.22;92.53
64687;BME280;51113;53.646;-113.674;2024-03-23T01:30:04;94415.31;;;-6.27;92.39
64687;BME280;51113;53.646;-113.674;2024-03-23T01:32:31;94413.88;;;-6.39;93.24
64687;BME280;51113;53.646;-113.674;2024-03-23T01:34:58;94412.03;;;-6.37;94.22
64687;BME280;51113;53.646;-113.674;2024-03-23T01:37:24;94408.97;;;-6.41;94.70
64687;BME280;51113;53.646;-113.674;2024-03-23T01:39:51;94409.38;;;-6.45;94.70
64687;BME280;51113;53.646;-113.674;2024-03-23T01:42:18;94404.50;;;-6.57;94.40
64687;BME280;51113;53.646;-113.674;2024-03-23T01:44:44;94404.66;;;-6.58;93.00
64687;BME280;51113;53.646;-113.674;2024-03-23T01:47:11;94406.28;;;-6.67;91.87
64687;BME280;51113;53.646;-113.674;2024-03-23T01:49:38;94406.00;;;-6.64;92.88
64687;BME280;51113;53.646;-113.674;2024-03-23T01:52:04;94390.31;;;-6.67;92.46
64687;BME280;51113;53.646;-113.674;2024-03-23T01:54:31;94394.97;;;-6.63;92.23
64687;BME280;51113;53.646;-113.674;2024-03-23T01:56:58;94393.78;;;-6.68;90.74
64687;BME280;51113;53.646;-113.674;2024-03-23T01:59:24;94401.34;;;-6.68;90.50
64687;BME280;51113;53.646;-113.674;2024-03-23T02:01:51;94388.91;;;-6.79;90.55
64687;BME280;51113;53.646;-113.674;2024-03-23T02:04:18;94394.47;;;-6.76;91.30
64687;BME280;51113;53.646;-113.674;2024-03-23T02:06:44;94384.53;;;-6.87;90.09
64687;BME280;51113;53.646;-113.674;2024-03-23T02:09:11;94388.91;;;-6.89;90.94
64687;BME280;51113;53.646;-113.674;2024-03-23T02:11:38;94384.66;;;-6.89;91.90
64687;BME280;51113;53.646;-113.674;2024-03-23T02:14:04;94386.53;;;-6.91;92.31
64687;BME280;51113;53.646;-113.674;2024-03-23T02:16:31;94383.88;;;-6.89;93.21
64687;BME280;51113;53.646;-113.674;2024-03-23T02:18:57;94377.88;;;-6.88;93.80
64687;BME280;51113;53.646;-113.674;2024-03-23T02:21:24;94379.09;;;-6.92;93.37
64687;BME280;51113;53.646;-113.674;2024-03-23T02:23:51;94374.03;;;-6.92;94.07
64687;BME280;51113;53.646;-113.674;2024-03-23T02:26:18;94373.00;;;-6.99;94.72
64687;BME280;51113;53.646;-113.674;2024-03-23T02:28:44;94370.63;;;-7.01;94.44
64687;BME280;51113;53.646;-113.674;2024-03-23T02:31:11;94375.38;;;-6.98;94.13
64687;BME280;51113;53.646;-113.674;2024-03-23T02:33:37;94373.28;;;-7.02;95.19
64687;BME280;51113;53.646;-113.674;2024-03-23T02:36:04;94384.16;;;-7.02;94.79
64687;BME280;51113;53.646;-113.674;2024-03-23T02:38:31;94381.13;;;-7.05;95.25
64687;BME280;51113;53.646;-113.674;2024-03-23T02:41:04;94378.59;;;-7.05;94.73
64687;BME280;51113;53.646;-113.674;2024-03-23T02:43:31;94379.13;;;-7.02;95.62
64687;BME280;51113;53.646;-113.674;2024-03-23T02:45:58;94368.50;;;-7.05;95.04
64687;BME280;51113;53.646;-113.674;2024-03-23T02:48:25;94368.22;;;-7.02;95.90
64687;BME280;51113;53.646;-113.674;2024-03-23T02:50:51;94364.91;;;-7.03;94.54
64687;BME280;51113;53.646;-113.674;2024-03-23T02:53:18;94376.47;;;-7.10;94.28
64687;BME280;51113;53.646;-113.674;2024-03-23T02:55:44;94371.03;;;-7.15;94.79
64687;BME280;51113;53.646;-113.674;2024-03-23T02:58:11;94374.34;;;-7.14;94.35
64687;BME280;51113;53.646;-113.674;2024-03-23T03:00:38;94368.91;;;-7.10;95.54
64687;BME280;51113;53.646;-113.674;2024-03-23T03:03:04;94368.78;;;-7.08;94.83
64687;BME280;51113;53.646;-113.674;2024-03-23T03:05:31;94371.53;;;-6.92;95.51
64687;BME280;51113;53.646;-113.674;2024-03-23T03:07:57;94371.25;;;-6.89;95.72
64687;BME280;51113;53.646;-113.674;2024-03-23T03:10:24;94364.13;;;-7.03;94.98
64687;BME280;51113;53.646;-113.674;2024-03-23T03:12:50;94359.84;;;-7.03;94.77
64687;BME280;51113;53.646;-113.674;2024-03-23T03:15:17;94361.28;;;-6.91;95.30
64687;BME280;51113;53.646;-113.674;2024-03-23T03:17:45;94360.25;;;-6.98;94.91
64687;BME280;51113;53.646;-113.674;2024-03-23T03:20:11;94358.22;;;-6.85;95.99
64687;BME280;51113;53.646;-113.674;2024-03-23T03:22:39;94360.78;;;-7.04;95.00
64687;BME280;51113;53.646;-113.674;2024-03-23T03:25:06;94355.16;;;-6.78;96.02
64687;BME280;51113;53.646;-113.674;2024-03-23T03:27:33;94356.00;;;-6.97;94.92
64687;BME280;51113;53.646;-113.674;2024-03-23T03:30:00;94326.03;;;-7.20;94.99
64687;BME280;51113;53.646;-113.674;2024-03-23T03:32:29;94359.72;;;-7.01;95.02
64687;BME280;51113;53.646;-113.674;2024-03-23T03:34:56;94357.38;;;-6.66;96.52
64687;BME280;51113;53.646;-113.674;2024-03-23T03:37:22;94354.53;;;-6.90;94.52
64687;BME280;51113;53.646;-113.674;2024-03-23T03:39:49;94351.34;;;-7.02;95.30
64687;BME280;51113;53.646;-113.674;2024-03-23T03:42:15;94350.19;;;-7.07;95.82
64687;BME280;51113;53.646;-113.674;2024-03-23T03:44:42;94348.84;;;-7.11;96.04
64687;BME280;51113;53.646;-113.674;2024-03-23T03:47:08;94334.78;;;-7.14;95.64
64687;BME280;51113;53.646;-113.674;2024-03-23T03:49:35;94343.22;;;-6.86;96.37
64687;BME280;51113;53.646;-113.674;2024-03-23T03:52:02;94340.28;;;-6.81;95.98
64687;BME280;51113;53.646;-113.674;2024-03-23T03:54:28;94338.47;;;-6.62;96.35
64687;BME280;51113;53.646;-113.674;2024-03-23T03:56:55;94336.50;;;-6.68;95.53
64687;BME280;51113;53.646;-113.674;2024-03-23T03:59:21;94338.34;;;-6.33;97.15
64687;BME280;51113;53.646;-113.674;2024-03-23T04:01:48;94341.53;;;-6.58;94.40
64687;BME280;51113;53.646;-113.674;2024-03-23T04:04:14;94328.44;;;-6.81;95.65
64687;BME280;51113;53.646;-113.674;2024-03-23T04:06:43;94324.88;;;-6.88;95.02
64687;BME280;51113;53.646;-113.674;2024-03-23T04:09:10;94328.88;;;-6.86;94.82
64687;BME280;51113;53.646;-113.674;2024-03-23T04:11:36;94329.84;;;-6.96;94.87
64687;BME280;51113;53.646;-113.674;2024-03-23T04:14:03;94331.41;;;-6.95;95.54
64687;BME280;51113;53.646;-113.674;2024-03-23T04:16:35;94328.38;;;-6.99;95.96
64687;BME280;51113;53.646;-113.674;2024-03-23T04:19:01;94324.31;;;-7.19;95.63
64687;BME280;51113;53.646;-113.674;2024-03-23T04:21:28;94309.31;;;-7.21;96.55
64687;BME280;51113;53.646;-113.674;2024-03-23T04:23:55;94321.94;;;-7.21;95.79
64687;BME280;51113;53.646;-113.674;2024-03-23T04:26:21;94314.09;;;-7.18;95.55
64687;BME280;51113;53.646;-113.674;2024-03-23T04:28:48;94303.22;;;-7.28;96.60
64687;BME280;51113;53.646;-113.674;2024-03-23T04:31:14;94320.34;;;-7.22;96.61
64687;BME280;51113;53.646;-113.674;2024-03-23T04:33:41;94306.13;;;-7.23;95.94
64687;BME280;51113;53.646;-113.674;2024-03-23T04:36:08;94307.59;;;-7.30;95.73
64687;BME280;51113;53.646;-113.674;2024-03-23T04:38:36;94302.31;;;-7.36;95.29
64687;BME280;51113;53.646;-113.674;2024-03-23T04:41:02;94289.56;;;-7.35;96.09
64687;BME280;51113;53.646;-113.674;2024-03-23T04:43:29;94299.66;;;-7.35;96.49
64687;BME280;51113;53.646;-113.674;2024-03-23T04:45:55;94300.97;;;-7.31;96.35
64687;BME280;51113;53.646;-113.674;2024-03-23T04:48:23;94299.00;;;-7.37;95.76
64687;BME280;51113;53.646;-113.674;2024-03-23T04:50:54;94297.13;;;-7.35;96.45
64687;BME280;51113;53.646;-113.674;2024-03-23T04:53:20;94294.47;;;-7.33;96.07
64687;BME280;51113;53.646;-113.674;2024-03-23T04:55:47;94299.25;;;-7.40;96.48
64687;BME280;51113;53.646;-113.674;2024-03-23T04:58:13;94296.75;;;-7.40;96.88
64687;BME280;51113;53.646;-113.674;2024-03-23T05:00:40;94282.03;;;-7.44;96.33
64687;BME280;51113;53.646;-113.674;2024-03-23T05:03:06;94274.72;;;-7.38;96.37
64687;BME280;51113;53.646;-113.674;2024-03-23T05:05:33;94288.78;;;-7.35;96.93
64687;BME280;51113;53.646;-113.674;2024-03-23T05:07:59;94274.56;;;-7.36;96.85
64687;BME280;51113;53.646;-113.674;2024-03-23T05:10:26;94271.66;;;-7.41;96.36
64687;BME280;51113;53.646;-113.674;2024-03-23T05:12:52;94273.25;;;-7.40;97.14
64687;BME280;51113;53.646;-113.674;2024-03-23T05:15:19;94274.19;;;-7.41;96.52
64687;BME280;51113;53.646;-113.674;2024-03-23T05:17:46;94263.72;;;-7.46;96.66
64687;BME280;51113;53.646;-113.674;2024-03-23T05:20:12;94265.56;;;-7.39;96.73
64687;BME280;51113;53.646;-113.674;2024-03-23T05:22:40;94259.06;;;-7.41;96.33
64687;BME280;51113;53.646;-113.674;2024-03-23T05:25:06;94257.31;;;-7.41;96.83
64687;BME280;51113;53.646;-113.674;2024-03-23T05:27:33;94262.50;;;-7.42;96.78
64687;BME280;51113;53.646;-113.674;2024-03-23T05:30:00;94256.00;;;-7.45;96.92
64687;BME280;51113;53.646;-113.674;2024-03-23T05:32:26;94248.03;;;-7.40;96.95
64687;BME280;51113;53.646;-113.674;2024-03-23T05:34:54;94248.72;;;-7.48;96.89
64687;BME280;51113;53.646;-113.674;2024-03-23T05:37:23;94246.72;;;-7.44;96.81
64687;BME280;51113;53.646;-113.674;2024-03-23T05:39:49;94230.28;;;-7.58;96.82
64687;BME280;51113;53.646;-113.674;2024-03-23T05:42:17;94240.88;;;-7.45;97.18
64687;BME280;51113;53.646;-113.674;2024-03-23T05:44:47;94242.59;;;-7.45;97.71
64687;BME280;51113;53.646;-113.674;2024-03-23T05:47:13;94242.47;;;-7.44;96.76
64687;BME280;51113;53.646;-113.674;2024-03-23T05:49:43;94233.19;;;-7.43;97.06
64687;BME280;51113;53.646;-113.674;2024-03-23T05:52:09;94244.34;;;-7.46;97.00
64687;BME280;51113;53.646;-113.674;2024-03-23T05:54:36;94230.53;;;-7.52;98.22
64687;BME280;51113;53.646;-113.674;2024-03-23T05:57:03;94222.06;;;-7.51;97.89
64687;BME280;51113;53.646;-113.674;2024-03-23T05:59:30;94240.19;;;-7.37;98.11
64687;BME280;51113;53.646;-113.674;2024-03-23T06:01:57;94241.91;;;-7.38;97.09
64687;BME280;51113;53.646;-113.674;2024-03-23T06:04:24;94226.66;;;-7.36;97.75
64687;BME280;51113;53.646;-113.674;2024-03-23T06:06:51;94231.19;;;-7.40;97.64
64687;BME280;51113;53.646;-113.674;2024-03-23T06:09:18;94225.47;;;-7.42;97.40
64687;BME280;51113;53.646;-113.674;2024-03-23T06:11:45;94211.16;;;-7.51;97.84
64687;BME280;51113;53.646;-113.674;2024-03-23T06:14:12;94224.03;;;-7.44;98.08
64687;BME280;51113;53.646;-113.674;2024-03-23T06:16:38;94218.56;;;-7.40;98.09
64687;BME280;51113;53.646;-113.674;2024-03-23T06:19:05;94210.50;;;-7.53;98.36
64687;BME280;51113;53.646;-113.674;2024-03-23T06:21:33;94204.69;;;-7.54;98.21
64687;BME280;51113;53.646;-113.674;2024-03-23T06:23:59;94211.41;;;-7.44;98.10
64687;BME280;51113;53.646;-113.674;2024-03-23T06:26:26;94208.50;;;-7.50;97.79
64687;BME280;51113;53.646;-113.674;2024-03-23T06:28:52;94202.94;;;-7.43;98.64
64687;BME280;51113;53.646;-113.674;2024-03-23T06:31:20;94202.41;;;-7.47;97.89
64687;BME280;51113;53.646;-113.674;2024-03-23T06:33:46;94199.88;;;-7.47;98.25
64687;BME280;51113;53.646;-113.674;2024-03-23T06:36:13;94192.88;;;-7.53;98.29
64687;BME280;51113;53.646;-113.674;2024-03-23T06:38:39;94190.44;;;-7.45;97.61
64687;BME280;51113;53.646;-113.674;2024-03-23T06:41:06;94184.38;;;-7.52;98.07
64687;BME280;51113;53.646;-113.674;2024-03-23T06:43:32;94190.72;;;-7.48;97.48
64687;BME280;51113;53.646;-113.674;2024-03-23T06:45:59;94179.19;;;-7.51;98.11
64687;BME280;51113;53.646;-113.674;2024-03-23T06:48:26;94182.78;;;-7.53;98.23
64687;BME280;51113;53.646;-113.674;2024-03-23T06:50:58;94171.13;;;-7.54;98.56
64687;BME280;51113;53.646;-113.674;2024-03-23T06:53:25;94171.75;;;-7.52;98.39
64687;BME280;51113;53.646;-113.674;2024-03-23T06:55:54;94176.53;;;-7.49;98.31
64687;BME280;51113;53.646;-113.674;2024-03-23T06:58:23;94163.97;;;-7.59;97.93
64687;BME280;51113;53.646;-113.674;2024-03-23T07:00:50;94168.03;;;-7.48;98.60
64687;BME280;51113;53.646;-113.674;2024-03-23T07:03:17;94172.81;;;-7.45;98.91
64687;BME280;51113;53.646;-113.674;2024-03-23T07:05:43;94167.38;;;-7.50;98.78
64687;BME280;51113;53.646;-113.674;2024-03-23T07:08:12;94164.84;;;-7.50;98.39
64687;BME280;51113;53.646;-113.674;2024-03-23T07:10:42;94169.91;;;-7.50;98.22
64687;BME280;51113;53.646;-113.674;2024-03-23T07:13:08;94155.31;;;-7.56;98.12
64687;BME280;51113;53.646;-113.674;2024-03-23T07:15:35;94165.94;;;-7.53;98.46
64687;BME280;51113;53.646;-113.674;2024-03-23T07:18:01;94150.66;;;-7.51;99.01
64687;BME280;51113;53.646;-113.674;2024-03-23T07:20:29;94152.41;;;-7.52;97.90
64687;BME280;51113;53.646;-113.674;2024-03-23T07:22:57;94148.69;;;-7.57;98.39
64687;BME280;51113;53.646;-113.674;2024-03-23T07:25:23;94146.69;;;-7.54;98.53
64687;BME280;51113;53.646;-113.674;2024-03-23T07:27:53;94139.00;;;-7.52;98.87
64687;BME280;51113;53.646;-113.674;2024-03-23T07:30:19;94140.84;;;-7.54;98.35
64687;BME280;51113;53.646;-113.674;2024-03-23T07:32:46;94139.41;;;-7.57;98.90
64687;BME280;51113;53.646;-113.674;2024-03-23T07:35:12;94143.53;;;-7.56;98.57
64687;BME280;51113;53.646;-113.674;2024-03-23T07:37:39;94144.72;;;-7.60;98.07
64687;BME280;51113;53.646;-113.674;2024-03-23T07:40:06;94140.63;;;-7.61;98.51
64687;BME280;51113;53.646;-113.674;2024-03-23T07:42:32;94127.59;;;-7.56;99.19
64687;BME280;51113;53.646;-113.674;2024-03-23T07:44:59;94131.72;;;-7.55;99.30
64687;BME280;51113;53.646;-113.674;2024-03-23T07:47:25;94124.44;;;-7.58;98.79
64687;BME280;51113;53.646;-113.674;2024-03-23T07:49:52;94111.59;;;-7.65;98.74
64687;BME280;51113;53.646;-113.674;2024-03-23T07:52:18;94119.25;;;-7.57;98.48
64687;BME280;51113;53.646;-113.674;2024-03-23T07:54:45;94117.78;;;-7.59;98.24
64687;BME280;51113;53.646;-113.674;2024-03-23T07:57:11;94115.94;;;-7.57;99.06
64687;BME280;51113;53.646;-113.674;2024-03-23T07:59:38;94111.69;;;-7.57;98.30
64687;BME280;51113;53.646;-113.674;2024-03-23T08:02:05;94104.94;;;-7.66;98.40
64687;BME280;51113;53.646;-113.674;2024-03-23T08:04:31;94105.59;;;-7.64;97.82
64687;BME280;51113;53.646;-113.674;2024-03-23T08:06:58;94101.88;;;-7.60;98.57
64687;BME280;51113;53.646;-113.674;2024-03-23T08:09:24;94105.47;;;-7.62;97.91
64687;BME280;51113;53.646;-113.674;2024-03-23T08:11:51;94101.22;;;-7.62;98.33
64687;BME280;51113;53.646;-113.674;2024-03-23T08:14:17;94099.50;;;-7.61;98.09
64687;BME280;51113;53.646;-113.674;2024-03-23T08:16:44;94097.13;;;-7.63;98.45
64687;BME280;51113;53.646;-113.674;2024-03-23T08:19:15;94091.56;;;-7.66;97.82
64687;BME280;51113;53.646;-113.674;2024-03-23T08:21:41;94088.38;;;-7.68;97.79
64687;BME280;51113;53.646;-113.674;2024-03-23T08:24:08;94060.09;;;-7.90;98.66
64687;BME280;51113;53.646;-113.674;2024-03-23T08:26:34;94087.22;;;-7.74;98.20
64687;BME280;51113;53.646;-113.674;2024-03-23T08:29:03;94092.13;;;-7.72;98.55
64687;BME280;51113;53.646;-113.674;2024-03-23T08:31:30;94082.81;;;-7.72;97.92
64687;BME280;51113;53.646;-113.674;2024-03-23T08:33:57;94080.44;;;-7.73;98.02
64687;BME280;51113;53.646;-113.674;2024-03-23T08:36:23;94079.22;;;-7.69;98.56
64687;BME280;51113;53.646;-113.674;2024-03-23T08:38:50;94069.47;;;-7.82;97.79
64687;BME280;51113;53.646;-113.674;2024-03-23T08:41:19;94076.34;;;-7.74;97.95
64687;BME280;51113;53.646;-113.674;2024-03-23T08:43:46;94063.25;;;-7.88;98.82
64687;BME280;51113;53.646;-113.674;2024-03-23T08:46:14;94071.19;;;-7.83;98.92
64687;BME280;51113;53.646;-113.674;2024-03-23T08:48:43;94077.56;;;-7.78;98.65
64687;BME280;51113;53.646;-113.674;2024-03-23T08:51:13;94074.75;;;-7.75;98.25
64687;BME280;51113;53.646;-113.674;2024-03-23T08:53:40;94064.81;;;-7.77;99.11
64687;BME280;51113;53.646;-113.674;2024-03-23T08:56:07;94067.72;;;-7.72;98.14
64687;BME280;51113;53.646;-113.674;2024-03-23T08:58:35;94065.19;;;-7.72;98.50
64687;BME280;51113;53.646;-113.674;2024-03-23T09:01:10;94068.22;;;-7.68;98.86
64687;BME280;51113;53.646;-113.674;2024-03-23T09:03:37;94050.06;;;-7.72;98.62
64687;BME280;51113;53.646;-113.674;2024-03-23T09:06:15;94050.72;;;-7.70;98.45
64687;BME280;51113;53.646;-113.674;2024-03-23T09:08:41;94042.94;;;-7.76;99.17
64687;BME280;51113;53.646;-113.674;2024-03-23T09:11:10;94056.56;;;-7.69;99.47
64687;BME280;51113;53.646;-113.674;2024-03-23T09:13:37;94053.09;;;-7.68;99.32
64687;BME280;51113;53.646;-113.674;2024-03-23T09:16:05;94041.81;;;-7.64;99.29
64687;BME280;51113;53.646;-113.674;2024-03-23T09:18:33;94040.06;;;-7.64;99.12
64687;BME280;51113;53.646;-113.674;2024-03-23T09:21:02;94029.19;;;-7.64;98.90
64687;BME280;51113;53.646;-113.674;2024-03-23T09:23:29;94038.91;;;-7.69;98.80
64687;BME280;51113;53.646;-113.674;2024-03-23T09:25:56;94032.66;;;-7.65;98.78
64687;BME280;51113;53.646;-113.674;2024-03-23T09:28:22;94034.91;;;-7.62;99.04
64687;BME280;51113;53.646;-113.674;2024-03-23T09:30:49;94026.53;;;-7.63;98.66
64687;BME280;51113;53.646;-113.674;2024-03-23T09:33:15;94016.66;;;-7.74;99.16
64687;BME280;51113;53.646;-113.674;2024-03-23T09:35:43;94010.13;;;-7.67;99.01
64687;BME280;51113;53.646;-113.674;2024-03-23T09:38:11;94019.50;;;-7.59;99.18
64687;BME280;51113;53.646;-113.674;2024-03-23T09:40:41;94022.84;;;-7.68;98.24
64687;BME280;51113;53.646;-113.674;2024-03-23T09:43:10;94016.59;;;-7.64;98.26
64687;BME280;51113;53.646;-113.674;2024-03-23T09:45:40;94013.28;;;-7.65;98.21
64687;BME280;51113;53.646;-113.674;2024-03-23T09:48:08;94008.81;;;-7.71;98.08
64687;BME280;51113;53.646;-113.674;2024-03-23T09:50:40;94003.25;;;-7.74;98.58
64687;BME280;51113;53.646;-113.674;2024-03-23T09:53:07;93989.50;;;-7.80;98.12
64687;BME280;51113;53.646;-113.674;2024-03-23T09:55:34;93996.13;;;-7.79;98.43
64687;BME280;51113;53.646;-113.674;2024-03-23T09:58:04;94001.94;;;-7.78;98.72
64687;BME280;51113;53.646;-113.674;2024-03-23T10:00:35;93991.13;;;-7.89;98.33
64687;BME280;51113;53.646;-113.674;2024-03-23T10:03:01;93989.41;;;-7.88;98.25
64687;BME280;51113;53.646;-113.674;2024-03-23T10:05:31;93985.44;;;-7.91;98.53
64687;BME280;51113;53.646;-113.674;2024-03-23T10:08:20;93987.41;;;-7.85;98.06
64687;BME280;51113;53.646;-113.674;2024-03-23T10:10:47;93974.34;;;-7.98;98.02
64687;BME280;51113;53.646;-113.674;2024-03-23T10:13:27;93984.22;;;-7.87;98.50
64687;BME280;51113;53.646;-113.674;2024-03-23T10:15:56;93972.19;;;-7.93;98.43
64687;BME280;51113;53.646;-113.674;2024-03-23T10:18:25;93974.06;;;-7.95;98.17
64687;BME280;51113;53.646;-113.674;2024-03-23T10:21:11;93973.13;;;-7.94;98.05
64687;BME280;51113;53.646;-113.674;2024-03-23T10:23:39;93971.16;;;-8.00;97.77
64687;BME280;51113;53.646;-113.674;2024-03-23T10:26:14;93970.38;;;-8.00;97.72
64687;BME280;51113;53.646;-113.674;2024-03-23T10:29:01;93975.56;;;-8.02;98.51
64687;BME280;51113;53.646;-113.674;2024-03-23T10:31:28;93968.94;;;-8.03;98.67
64687;BME280;51113;53.646;-113.674;2024-03-23T10:33:55;93962.81;;;-8.00;98.05
64687;BME280;51113;53.646;-113.674;2024-03-23T10:36:23;93964.97;;;-8.05;98.39
64687;BME280;51113;53.646;-113.674;2024-03-23T10:38:50;93956.47;;;-8.04;98.18
64687;BME280;51113;53.646;-113.674;2024-03-23T10:41:18;93959.78;;;-8.04;98.06
64687;BME280;51113;53.646;-113.674;2024-03-23T10:43:46;93959.41;;;-8.09;98.31
64687;BME280;51113;53.646;-113.674;2024-03-23T10:46:13;93951.22;;;-8.11;98.10
64687;BME280;51113;53.646;-113.674;2024-03-23T10:48:39;93954.28;;;-8.17;98.45
64687;BME280;51113;53.646;-113.674;2024-03-23T10:51:08;93952.84;;;-8.20;98.60
64687;BME280;51113;53.646;-113.674;2024-03-23T10:53:35;93940.94;;;-8.27;98.31
64687;BME280;51113;53.646;-113.674;2024-03-23T10:56:04;93934.91;;;-8.34;98.47
64687;BME280;51113;53.646;-113.674;2024-03-23T10:58:40;93928.44;;;-8.37;98.64
64687;BME280;51113;53.646;-113.674;2024-03-23T11:01:11;93937.34;;;-8.42;98.94
64687;BME280;51113;53.646;-113.674;2024-03-23T11:03:39;93933.09;;;-8.42;98.29
64687;BME280;51113;53.646;-113.674;2024-03-23T11:06:06;93937.59;;;-8.45;98.66
64687;BME280;51113;53.646;-113.674;2024-03-23T11:08:37;93935.22;;;-8.47;99.04
64687;BME280;51113;53.646;-113.674;2024-03-23T11:11:17;93921.19;;;-8.50;98.77
64687;BME280;51113;53.646;-113.674;2024-03-23T11:13:47;93925.47;;;-8.60;99.10
64687;BME280;51113;53.646;-113.674;2024-03-23T11:16:21;93936.31;;;-8.50;99.09
64687;BME280;51113;53.646;-113.674;2024-03-23T11:18:48;93933.13;;;-8.52;98.62
64687;BME280;51113;53.646;-113.674;2024-03-23T11:21:53;93929.81;;;-8.52;98.32
64687;BME280;51113;53.646;-113.674;2024-03-23T11:24:20;93933.41;;;-8.55;99.18
64687;BME280;51113;53.646;-113.674;2024-03-23T11:26:47;93920.44;;;-8.60;98.94
64687;BME280;51113;53.646;-113.674;2024-03-23T11:29:15;93921.47;;;-8.53;98.97
64687;BME280;51113;53.646;-113.674;2024-03-23T11:31:49;93921.75;;;-8.56;98.76
64687;BME280;51113;53.646;-113.674;2024-03-23T11:34:17;93915.94;;;-8.56;98.42
64687;BME280;51113;53.646;-113.674;2024-03-23T11:36:44;93919.22;;;-8.56;98.73
64687;BME280;51113;53.646;-113.674;2024-03-23T11:39:17;93915.53;;;-8.61;98.94
64687;BME280;51113;53.646;-113.674;2024-03-23T11:41:51;93915.41;;;-8.60;99.07
64687;BME280;51113;53.646;-113.674;2024-03-23T11:44:19;93913.69;;;-8.59;98.72
64687;BME280;51113;53.646;-113.674;2024-03-23T11:46:46;93905.34;;;-8.60;98.48
64687;BME280;51113;53.646;-113.674;2024-03-23T11:49:24;93908.00;;;-8.61;98.91
64687;BME280;51113;53.646;-113.674;2024-03-23T11:51:52;93911.03;;;-8.58;98.90
64687;BME280;51113;53.646;-113.674;2024-03-23T11:54:21;93903.63;;;-8.59;98.79
64687;BME280;51113;53.646;-113.674;2024-03-23T11:57:18;93907.72;;;-8.58;99.07
64687;BME280;51113;53.646;-113.674;2024-03-23T11:59:44;93896.63;;;-8.65;98.66
64687;BME280;51113;53.646;-113.674;2024-03-23T12:02:11;93895.56;;;-8.63;98.20
64687;BME280;51113;53.646;-113.674;2024-03-23T12:04:41;93901.78;;;-8.67;98.33
64687;BME280;51113;53.646;-113.674;2024-03-23T12:07:20;93876.53;;;-8.75;98.52
64687;BME280;51113;53.646;-113.674;2024-03-23T12:10:03;93892.28;;;-8.73;98.60
64687;BME280;51113;53.646;-113.674;2024-03-23T12:12:30;93890.56;;;-8.72;98.53
64687;BME280;51113;53.646;-113.674;2024-03-23T12:15:07;93891.91;;;-8.78;98.11
64687;BME280;51113;53.646;-113.674;2024-03-23T12:17:35;93891.75;;;-8.76;98.10
64687;BME280;51113;53.646;-113.674;2024-03-23T12:20:02;93891.63;;;-8.75;98.58
64687;BME280;51113;53.646;-113.674;2024-03-23T12:22:29;93898.66;;;-8.78;98.87
64687;BME280;51113;53.646;-113.674;2024-03-23T12:25:00;93883.44;;;-8.77;98.55
64687;BME280;51113;53.646;-113.674;2024-03-23T12:27:27;93899.19;;;-8.75;99.08
64687;BME280;51113;53.646;-113.674;2024-03-23T12:29:54;93895.22;;;-8.77;98.14
64687;BME280;51113;53.646;-113.674;2024-03-23T12:32:20;93898.78;;;-8.80;97.78
64687;BME280;51113;53.646;-113.674;2024-03-23T12:34:47;93897.88;;;-8.79;98.19
64687;BME280;51113;53.646;-113.674;2024-03-23T12:37:14;93897.19;;;-8.71;98.60
64687;BME280;51113;53.646;-113.674;2024-03-23T12:39:41;93900.91;;;-8.75;98.01
64687;BME280;51113;53.646;-113.674;2024-03-23T12:42:08;93895.88;;;-8.75;97.79
64687;BME280;51113;53.646;-113.674;2024-03-23T12:44:34;93896.00;;;-8.77;98.20
64687;BME280;51113;53.646;-113.674;2024-03-23T12:47:01;93890.47;;;-8.81;97.35
64687;BME280;51113;53.646;-113.674;2024-03-23T12:49:28;93898.38;;;-8.75;98.02
64687;BME280;51113;53.646;-113.674;2024-03-23T12:51:56;93893.63;;;-8.78;97.97
64687;BME280;51113;53.646;-113.674;2024-03-23T12:54:23;93895.06;;;-8.76;97.01
64687;BME280;51113;53.646;-113.674;2024-03-23T12:56:50;93886.59;;;-8.75;98.00
64687;BME280;51113;53.646;-113.674;2024-03-23T12:59:16;93891.25;;;-8.80;97.14
64687;BME280;51113;53.646;-113.674;2024-03-23T13:01:45;93879.59;;;-8.81;97.16
64687;BME280;51113;53.646;-113.674;2024-03-23T13:04:11;93888.47;;;-8.77;97.18
64687;BME280;51113;53.646;-113.674;2024-03-23T13:06:38;93888.47;;;-8.77;97.31
64687;BME280;51113;53.646;-113.674;2024-03-23T13:09:04;93878.94;;;-8.83;97.53
64687;BME280;51113;53.646;-113.674;2024-03-23T13:11:31;93872.22;;;-8.92;97.29
64687;BME280;51113;53.646;-113.674;2024-03-23T13:13:58;93884.91;;;-8.84;96.75
64687;BME280;51113;53.646;-113.674;2024-03-23T13:16:24;93874.06;;;-8.85;96.82
64687;BME280;51113;53.646;-113.674;2024-03-23T13:18:51;93879.22;;;-8.86;97.04
64687;BME280;51113;53.646;-113.674;2024-03-23T13:21:17;93876.44;;;-8.83;97.04
64687;BME280;51113;53.646;-113.674;2024-03-23T13:23:47;93875.78;;;-8.85;97.43
64687;BME280;51113;53.646;-113.674;2024-03-23T13:26:16;93879.09;;;-8.85;97.25
64687;BME280;51113;53.646;-113.674;2024-03-23T13:28:42;93879.09;;;-8.85;96.62